sensor_id;sensor_type;location;lat;lon;timestamp;pressure;altitude;pressure_sealevel;temperature;humidity
67109;BME280;54027;50.786;7.058;2023-03-25T00:01:20;100020.19;;;9.90;73.93
67109;BME280;54027;50.786;7.058;2023-03-25T00:03:50;100002.19;;;9.86;73.34
67109;BME280;54027;50.786;7.058;2023-03-25T00:06:17;100010.94;;;9.79;73.65
67109;BME280;54027;50.786;7.058;2023-03-25T00:08:43;100010.22;;;9.67;73.25
67109;BME280;54027;50.786;7.058;2023-03-25T00:11:08;100025.00;;;9.56;74.59
67109;BME280;54027;50.786;7.058;2023-03-25T00:13:34;100026.03;;;9.48;74.91
67109;BME280;54027;50.786;7.058;2023-03-25T00:16:02;100026.16;;;9.40;74.70
67109;BME280;54027;50.786;7.058;2023-03-25T00:18:29;100028.03;;;9.29;75.28
67109;BME280;54027;50.786;7.058;2023-03-25T00:20:58;100028.06;;;9.26;75.80
67109;BME280;54027;50.786;7.058;2023-03-25T00:23:24;100033.34;;;9.19;76.07
67109;BME280;54027;50.786;7.058;2023-03-25T00:25:49;100031.69;;;9.14;76.33
67109;BME280;54027;50.786;7.058;2023-03-25T00:28:17;100038.53;;;9.16;76.31
67109;BME280;54027;50.786;7.058;2023-03-25T00:30:44;100028.19;;;9.19;76.60
67109;BME280;54027;50.786;7.058;2023-03-25T00:33:10;100025.53;;;9.23;76.56
67109;BME280;54027;50.786;7.058;2023-03-25T00:35:38;100027.19;;;9.27;76.42
67109;BME280;54027;50.786;7.058;2023-03-25T00:38:04;100027.09;;;9.33;76.27
67109;BME280;54027;50.786;7.058;2023-03-25T00:40:32;100027.88;;;9.40;76.19
67109;BME280;54027;50.786;7.058;2023-03-25T00:43:01;100016.56;;;9.48;75.54
67109;BME280;54027;50.786;7.058;2023-03-25T00:45:28;100014.75;;;9.53;75.33
67109;BME280;54027;50.786;7.058;2023-03-25T00:47:54;100019.88;;;9.58;75.36
67109;BME280;54027;50.786;7.058;2023-03-25T00:50:20;100019.84;;;9.61;75.98
67109;BME280;54027;50.786;7.058;2023-03-25T00:52:46;100007.69;;;9.66;75.23
67109;BME280;54027;50.786;7.058;2023-03-25T00:55:12;99999.91;;;9.67;75.25
67109;BME280;54027;50.786;7.058;2023-03-25T00:57:37;99999.03;;;9.70;74.75
67109;BME280;54027;50.786;7.058;2023-03-25T01:00:04;99999.81;;;9.74;74.91
67109;BME280;54027;50.786;7.058;2023-03-25T01:02:32;100003.19;;;9.77;74.70
67109;BME280;54027;50.786;7.058;2023-03-25T01:04:58;99991.13;;;9.79;74.51
67109;BME280;54027;50.786;7.058;2023-03-25T01:07:24;99998.78;;;9.84;74.48
67109;BME280;54027;50.786;7.058;2023-03-25T01:09:49;100011.69;;;9.84;74.87
67109;BME280;54027;50.786;7.058;2023-03-25T01:12:15;99993.59;;;9.85;74.09
67109;BME280;54027;50.786;7.058;2023-03-25T01:14:43;100009.94;;;9.86;74.84
67109;BME280;54027;50.786;7.058;2023-03-25T01:17:09;99996.16;;;9.87;73.84
67109;BME280;54027;50.786;7.058;2023-03-25T01:19:35;100000.47;;;9.86;74.64
67109;BME280;54027;50.786;7.058;2023-03-25T01:22:00;99993.59;;;9.85;74.24
67109;BME280;54027;50.786;7.058;2023-03-25T01:24:26;99995.28;;;9.86;74.81
67109;BME280;54027;50.786;7.058;2023-03-25T01:26:51;99996.97;;;9.89;74.41
67109;BME280;54027;50.786;7.058;2023-03-25T01:29:18;99996.91;;;9.92;73.81
67109;BME280;54027;50.786;7.058;2023-03-25T01:31:44;99994.28;;;9.95;73.96
67109;BME280;54027;50.786;7.058;2023-03-25T01:34:10;99985.63;;;9.97;73.55
67109;BME280;54027;50.786;7.058;2023-03-25T01:36:36;99984.75;;;10.00;74.09
67109;BME280;54027;50.786;7.058;2023-03-25T01:39:05;99989.03;;;9.99;73.92
67109;BME280;54027;50.786;7.058;2023-03-25T01:41:32;99986.47;;;9.99;74.16
67109;BME280;54027;50.786;7.058;2023-03-25T01:44:05;99989.84;;;10.01;74.55
67109;BME280;54027;50.786;7.058;2023-03-25T01:46:30;99990.72;;;10.02;73.72
67109;BME280;54027;50.786;7.058;2023-03-25T01:48:58;99972.63;;;10.02;73.81
67109;BME280;54027;50.786;7.058;2023-03-25T01:51:28;99978.66;;;10.02;73.62
67109;BME280;54027;50.786;7.058;2023-03-25T01:53:55;99991.59;;;10.01;74.91
67109;BME280;54027;50.786;7.058;2023-03-25T01:56:30;99982.16;;;9.98;74.48
67109;BME280;54027;50.786;7.058;2023-03-25T01:59:02;99987.38;;;9.97;75.32
67109;BME280;54027;50.786;7.058;2023-03-25T02:01:29;99988.25;;;9.94;75.52
67109;BME280;54027;50.786;7.058;2023-03-25T02:03:56;99994.31;;;9.92;75.96
67109;BME280;54027;50.786;7.058;2023-03-25T02:06:37;99984.00;;;9.92;75.71
67109;BME280;54027;50.786;7.058;2023-03-25T02:09:05;99978.88;;;9.90;76.05
67109;BME280;54027;50.786;7.058;2023-03-25T02:11:32;99975.38;;;9.93;75.67
67109;BME280;54027;50.786;7.058;2023-03-25T02:14:04;99971.88;;;9.97;75.61
67109;BME280;54027;50.786;7.058;2023-03-25T02:27:58;99954.56;;;10.02;73.86
67109;BME280;54027;50.786;7.058;2023-03-25T02:33:55;99958.81;;;10.06;73.87
67109;BME280;54027;50.786;7.058;2023-03-25T02:39:50;99954.44;;;10.08;73.49
67109;BME280;54027;50.786;7.058;2023-03-25T02:42:03;99955.31;;;10.08;73.62
67109;BME280;54027;50.786;7.058;2023-03-25T02:44:36;99962.19;;;10.08;74.28
67109;BME280;54027;50.786;7.058;2023-03-25T02:47:08;99960.53;;;10.04;73.88
67109;BME280;54027;50.786;7.058;2023-03-25T02:49:40;99967.53;;;9.99;74.76
67109;BME280;54027;50.786;7.058;2023-03-25T02:54:38;99959.84;;;9.94;74.52
67109;BME280;54027;50.786;7.058;2023-03-25T02:57:06;99965.06;;;9.93;74.12
67109;BME280;54027;50.786;7.058;2023-03-25T02:59:34;99961.69;;;9.89;74.87
67109;BME280;54027;50.786;7.058;2023-03-25T03:02:05;99966.00;;;9.89;74.66
67109;BME280;54027;50.786;7.058;2023-03-25T03:04:42;99960.78;;;9.92;74.15
67109;BME280;54027;50.786;7.058;2023-03-25T03:07:09;99960.72;;;9.95;73.10
67109;BME280;54027;50.786;7.058;2023-03-25T03:09:44;99957.22;;;9.97;72.80
67109;BME280;54027;50.786;7.058;2023-03-25T03:17:32;99962.38;;;9.99;73.34
67109;BME280;54027;50.786;7.058;2023-03-25T03:20:31;99944.25;;;10.00;72.76
67109;BME280;54027;50.786;7.058;2023-03-25T03:23:12;99949.41;;;10.00;71.99
67109;BME280;54027;50.786;7.058;2023-03-25T03:26:06;99941.66;;;10.00;72.02
67109;BME280;54027;50.786;7.058;2023-03-25T03:33:59;99948.50;;;10.04;71.20
67109;BME280;54027;50.786;7.058;2023-03-25T03:36:35;99945.81;;;10.09;70.79
67109;BME280;54027;50.786;7.058;2023-03-25T03:39:11;99933.75;;;10.11;70.79
67109;BME280;54027;50.786;7.058;2023-03-25T03:41:42;99936.34;;;10.09;71.16
67109;BME280;54027;50.786;7.058;2023-03-25T03:44:13;99945.00;;;10.07;71.25
67109;BME280;54027;50.786;7.058;2023-03-25T03:46:45;99945.97;;;10.03;70.95
67109;BME280;54027;50.786;7.058;2023-03-25T03:49:17;99953.88;;;9.94;71.52
67109;BME280;54027;50.786;7.058;2023-03-25T03:51:58;99970.44;;;9.81;72.05
67109;BME280;54027;50.786;7.058;2023-03-25T03:54:32;99964.53;;;9.76;72.24
67109;BME280;54027;50.786;7.058;2023-03-25T03:57:24;99973.22;;;9.70;72.35
67109;BME280;54027;50.786;7.058;2023-03-25T04:00:03;99976.72;;;9.66;72.39
67109;BME280;54027;50.786;7.058;2023-03-25T04:02:49;99985.38;;;9.63;72.31
67109;BME280;54027;50.786;7.058;2023-03-25T04:05:18;99955.19;;;9.68;71.22
67109;BME280;54027;50.786;7.058;2023-03-25T04:08:14;99959.38;;;9.76;71.93
67109;BME280;54027;50.786;7.058;2023-03-25T04:10:42;99955.00;;;9.79;71.78
67109;BME280;54027;50.786;7.058;2023-03-25T04:13:13;99954.09;;;9.80;71.72
67109;BME280;54027;50.786;7.058;2023-03-25T04:15:41;99954.22;;;9.74;71.42
67109;BME280;54027;50.786;7.058;2023-03-25T04:18:07;99964.66;;;9.68;71.76
67109;BME280;54027;50.786;7.058;2023-03-25T04:20:33;99979.38;;;9.63;72.69
67109;BME280;54027;50.786;7.058;2023-03-25T04:23:01;99973.38;;;9.61;71.61
67109;BME280;54027;50.786;7.058;2023-03-25T04:25:29;99980.22;;;9.63;71.57
67109;BME280;54027;50.786;7.058;2023-03-25T04:27:57;99978.44;;;9.65;71.68
67109;BME280;54027;50.786;7.058;2023-03-25T04:30:23;99974.97;;;9.70;71.64
67109;BME280;54027;50.786;7.058;2023-03-25T04:32:50;99967.16;;;9.71;71.19
67109;BME280;54027;50.786;7.058;2023-03-25T04:35:17;99976.59;;;9.74;71.32
67109;BME280;54027;50.786;7.058;2023-03-25T04:37:44;99980.91;;;9.73;71.26
67109;BME280;54027;50.786;7.058;2023-03-25T04:40:11;99955.06;;;9.76;70.45
67109;BME280;54027;50.786;7.058;2023-03-25T04:42:44;99955.03;;;9.78;70.59
67109;BME280;54027;50.786;7.058;2023-03-25T04:45:11;99962.81;;;9.75;70.11
67109;BME280;54027;50.786;7.058;2023-03-25T04:47:44;99975.75;;;9.73;71.29
67109;BME280;54027;50.786;7.058;2023-03-25T04:50:28;99966.25;;;9.74;70.85
67109;BME280;54027;50.786;7.058;2023-03-25T04:52:54;99959.38;;;9.76;70.20
67109;BME280;54027;50.786;7.058;2023-03-25T04:55:26;99967.97;;;9.75;70.13
67109;BME280;54027;50.786;7.058;2023-03-25T04:57:53;99955.94;;;9.75;69.38
67109;BME280;54027;50.786;7.058;2023-03-25T05:00:23;99972.28;;;9.74;70.75
67109;BME280;54027;50.786;7.058;2023-03-25T05:02:54;99970.53;;;9.76;69.89
67109;BME280;54027;50.786;7.058;2023-03-25T05:05:23;99951.56;;;9.79;69.27
67109;BME280;54027;50.786;7.058;2023-03-25T05:07:51;99960.16;;;9.79;69.13
67109;BME280;54027;50.786;7.058;2023-03-25T05:10:23;99943.81;;;9.79;69.38
67109;BME280;54027;50.786;7.058;2023-03-25T05:12:49;99950.72;;;9.77;69.47
67109;BME280;54027;50.786;7.058;2023-03-25T05:15:15;99955.94;;;9.75;70.06
67109;BME280;54027;50.786;7.058;2023-03-25T05:17:44;99963.69;;;9.74;69.52
67109;BME280;54027;50.786;7.058;2023-03-25T05:20:10;99955.13;;;9.73;69.93
67109;BME280;54027;50.786;7.058;2023-03-25T05:22:37;99960.28;;;9.72;69.70
67109;BME280;54027;50.786;7.058;2023-03-25T05:25:04;99964.63;;;9.70;69.67
67109;BME280;54027;50.786;7.058;2023-03-25T05:27:31;99969.81;;;9.68;69.88
67109;BME280;54027;50.786;7.058;2023-03-25T05:29:56;99963.78;;;9.69;69.26
67109;BME280;54027;50.786;7.058;2023-03-25T05:32:26;99969.81;;;9.68;69.31
67109;BME280;54027;50.786;7.058;2023-03-25T05:34:54;99971.53;;;9.67;70.56
67109;BME280;54027;50.786;7.058;2023-03-25T05:37:20;99961.25;;;9.64;70.17
67109;BME280;54027;50.786;7.058;2023-03-25T05:39:46;99984.53;;;9.63;70.23
67109;BME280;54027;50.786;7.058;2023-03-25T05:42:11;99989.63;;;9.64;71.01
67109;BME280;54027;50.786;7.058;2023-03-25T05:44:37;99982.75;;;9.66;70.56
67109;BME280;54027;50.786;7.058;2023-03-25T05:47:03;99980.16;;;9.66;70.41
67109;BME280;54027;50.786;7.058;2023-03-25T05:49:28;99974.09;;;9.69;70.58
67109;BME280;54027;50.786;7.058;2023-03-25T05:51:54;99976.69;;;9.67;70.97
67109;BME280;54027;50.786;7.058;2023-03-25T05:54:23;99971.53;;;9.69;70.03
67109;BME280;54027;50.786;7.058;2023-03-25T05:56:52;99980.13;;;9.70;70.01
67109;BME280;54027;50.786;7.058;2023-03-25T05:59:17;99985.22;;;9.73;70.66
67109;BME280;54027;50.786;7.058;2023-03-25T06:01:44;99977.34;;;9.80;70.19
67109;BME280;54027;50.786;7.058;2023-03-25T06:04:12;99969.44;;;9.89;70.23
67109;BME280;54027;50.786;7.058;2023-03-25T06:06:40;99961.50;;;9.98;69.30
67109;BME280;54027;50.786;7.058;2023-03-25T06:09:06;99958.81;;;10.06;69.32
67109;BME280;54027;50.786;7.058;2023-03-25T06:11:32;99955.25;;;10.11;68.33
67109;BME280;54027;50.786;7.058;2023-03-25T06:14:03;99942.22;;;10.16;69.02
67109;BME280;54027;50.786;7.058;2023-03-25T06:16:28;99946.53;;;10.15;68.99
67109;BME280;54027;50.786;7.058;2023-03-25T06:18:55;99945.72;;;10.13;68.56
67109;BME280;54027;50.786;7.058;2023-03-25T06:21:24;99946.59;;;10.12;68.68
67109;BME280;54027;50.786;7.058;2023-03-25T06:23:51;99950.84;;;10.16;69.70
67109;BME280;54027;50.786;7.058;2023-03-25T06:26:19;99943.81;;;10.23;68.63
67109;BME280;54027;50.786;7.058;2023-03-25T06:28:45;99937.56;;;10.33;67.65
67109;BME280;54027;50.786;7.058;2023-03-25T06:31:18;99930.56;;;10.40;66.62
67109;BME280;54027;50.786;7.058;2023-03-25T06:33:48;99937.31;;;10.45;67.32
67109;BME280;54027;50.786;7.058;2023-03-25T06:36:16;99934.59;;;10.53;67.14
67109;BME280;54027;50.786;7.058;2023-03-25T06:38:48;99934.47;;;10.59;66.63
67109;BME280;54027;50.786;7.058;2023-03-25T06:41:15;99924.94;;;10.61;65.82
67109;BME280;54027;50.786;7.058;2023-03-25T06:43:44;99941.25;;;10.63;66.20
67109;BME280;54027;50.786;7.058;2023-03-25T06:46:11;99942.16;;;10.60;67.32
67109;BME280;54027;50.786;7.058;2023-03-25T06:48:36;99947.34;;;10.60;66.90
67109;BME280;54027;50.786;7.058;2023-03-25T06:51:01;99954.22;;;10.61;67.06
67109;BME280;54027;50.786;7.058;2023-03-25T06:53:27;99952.38;;;10.66;67.36
67109;BME280;54027;50.786;7.058;2023-03-25T06:55:55;99971.19;;;10.73;68.84
67109;BME280;54027;50.786;7.058;2023-03-25T06:58:22;99989.34;;;10.70;69.55
67109;BME280;54027;50.786;7.058;2023-03-25T07:00:52;100004.28;;;10.56;70.63
67109;BME280;54027;50.786;7.058;2023-03-25T07:03:21;100034.81;;;10.36;72.68
67109;BME280;54027;50.786;7.058;2023-03-25T07:05:47;100056.78;;;10.13;76.37
67109;BME280;54027;50.786;7.058;2023-03-25T07:08:14;100036.59;;;9.88;76.59
67109;BME280;54027;50.786;7.058;2023-03-25T07:10:39;100031.72;;;9.68;79.78
67109;BME280;54027;50.786;7.058;2023-03-25T07:13:04;100032.84;;;9.52;80.63
67109;BME280;54027;50.786;7.058;2023-03-25T07:15:30;100043.31;;;9.41;82.18
67109;BME280;54027;50.786;7.058;2023-03-25T07:17:55;100042.53;;;9.36;82.35
67109;BME280;54027;50.786;7.058;2023-03-25T07:20:21;100041.72;;;9.34;83.98
67109;BME280;54027;50.786;7.058;2023-03-25T07:22:46;100050.41;;;9.29;84.05
67109;BME280;54027;50.786;7.058;2023-03-25T07:25:11;100049.69;;;9.19;85.65
67109;BME280;54027;50.786;7.058;2023-03-25T07:27:37;100042.06;;;9.10;86.39
67109;BME280;54027;50.786;7.058;2023-03-25T07:30:03;100052.47;;;9.02;87.36
67109;BME280;54027;50.786;7.058;2023-03-25T07:32:29;100061.13;;;8.98;88.20
67109;BME280;54027;50.786;7.058;2023-03-25T07:34:54;100062.88;;;8.95;88.65
67109;BME280;54027;50.786;7.058;2023-03-25T07:37:19;100059.47;;;8.94;88.19
67109;BME280;54027;50.786;7.058;2023-03-25T07:39:45;100062.00;;;8.97;89.25
67109;BME280;54027;50.786;7.058;2023-03-25T07:42:10;100056.84;;;8.97;89.02
67109;BME280;54027;50.786;7.058;2023-03-25T07:44:36;100058.59;;;8.94;89.44
67109;BME280;54027;50.786;7.058;2023-03-25T07:47:01;100056.06;;;8.91;89.97
67109;BME280;54027;50.786;7.058;2023-03-25T07:49:26;100062.91;;;8.93;90.70
67109;BME280;54027;50.786;7.058;2023-03-25T07:51:52;100050.88;;;8.95;91.21
67109;BME280;54027;50.786;7.058;2023-03-25T07:54:17;100050.81;;;8.97;90.32
67109;BME280;54027;50.786;7.058;2023-03-25T07:56:44;100055.09;;;8.99;88.09
67109;BME280;54027;50.786;7.058;2023-03-25T07:59:10;100067.06;;;9.03;86.47
67109;BME280;54027;50.786;7.058;2023-03-25T08:01:35;100060.13;;;9.10;84.81
67109;BME280;54027;50.786;7.058;2023-03-25T08:04:00;100063.50;;;9.12;83.87
67109;BME280;54027;50.786;7.058;2023-03-25T08:06:26;100066.94;;;9.12;82.37
67109;BME280;54027;50.786;7.058;2023-03-25T08:08:51;100074.81;;;9.03;81.86
67109;BME280;54027;50.786;7.058;2023-03-25T08:11:17;100075.69;;;8.99;80.66
67109;BME280;54027;50.786;7.058;2023-03-25T08:13:42;100080.03;;;8.97;80.73
67109;BME280;54027;50.786;7.058;2023-03-25T08:16:11;100080.84;;;8.99;80.55
67109;BME280;54027;50.786;7.058;2023-03-25T08:18:37;100080.84;;;9.01;80.51
67109;BME280;54027;50.786;7.058;2023-03-25T08:21:03;100083.44;;;8.99;79.65
67109;BME280;54027;50.786;7.058;2023-03-25T08:23:28;100087.75;;;8.99;79.47
67109;BME280;54027;50.786;7.058;2023-03-25T08:25:53;100079.22;;;8.94;78.92
67109;BME280;54027;50.786;7.058;2023-03-25T08:28:20;100087.91;;;8.85;79.33
67109;BME280;54027;50.786;7.058;2023-03-25T08:30:50;100090.59;;;8.76;79.60
67109;BME280;54027;50.786;7.058;2023-03-25T08:33:19;100076.91;;;8.73;78.88
67109;BME280;54027;50.786;7.058;2023-03-25T08:35:46;100093.09;;;8.84;79.61
67109;BME280;54027;50.786;7.058;2023-03-25T08:38:12;100094.59;;;9.00;79.02
67109;BME280;54027;50.786;7.058;2023-03-25T08:40:41;100085.78;;;9.19;78.78
67109;BME280;54027;50.786;7.058;2023-03-25T08:43:07;100086.31;;;9.41;77.81
67109;BME280;54027;50.786;7.058;2023-03-25T08:45:33;100087.84;;;9.54;78.25
67109;BME280;54027;50.786;7.058;2023-03-25T08:48:00;100097.19;;;9.62;78.56
67109;BME280;54027;50.786;7.058;2023-03-25T08:50:26;100088.31;;;9.82;76.89
67109;BME280;54027;50.786;7.058;2023-03-25T08:52:51;100073.25;;;10.06;73.99
67109;BME280;54027;50.786;7.058;2023-03-25T08:55:22;100084.88;;;10.30;75.23
67109;BME280;54027;50.786;7.058;2023-03-25T08:57:48;100083.50;;;10.57;75.01
67109;BME280;54027;50.786;7.058;2023-03-25T09:00:14;100085.41;;;10.90;73.97
67109;BME280;54027;50.786;7.058;2023-03-25T09:02:41;100061.50;;;11.19;72.49
67109;BME280;54027;50.786;7.058;2023-03-25T09:05:09;100002.44;;;11.38;67.92
67109;BME280;54027;50.786;7.058;2023-03-25T09:07:35;100014.47;;;11.40;68.66
67109;BME280;54027;50.786;7.058;2023-03-25T09:10:01;100029.94;;;11.43;69.04
67109;BME280;54027;50.786;7.058;2023-03-25T09:12:27;100033.31;;;11.47;68.67
67109;BME280;54027;50.786;7.058;2023-03-25T09:14:52;100062.63;;;11.47;69.59
67109;BME280;54027;50.786;7.058;2023-03-25T09:17:17;100047.06;;;11.49;68.58
67109;BME280;54027;50.786;7.058;2023-03-25T09:19:43;100014.13;;;11.55;67.00
67109;BME280;54027;50.786;7.058;2023-03-25T09:22:08;100004.28;;;11.69;65.90
67109;BME280;54027;50.786;7.058;2023-03-25T09:24:33;99989.94;;;11.90;66.28
67109;BME280;54027;50.786;7.058;2023-03-25T09:27:00;99982.81;;;12.30;66.29
67109;BME280;54027;50.786;7.058;2023-03-25T09:29:27;99982.56;;;12.69;66.46
67109;BME280;54027;50.786;7.058;2023-03-25T09:31:52;99909.25;;;12.64;62.67
67109;BME280;54027;50.786;7.058;2023-03-25T09:34:17;99863.53;;;12.61;60.12
67109;BME280;54027;50.786;7.058;2023-03-25T09:36:43;99911.81;;;12.93;61.78
67109;BME280;54027;50.786;7.058;2023-03-25T09:39:10;99901.25;;;12.97;61.25
67109;BME280;54027;50.786;7.058;2023-03-25T09:42:03;99875.41;;;12.94;59.51
67109;BME280;54027;50.786;7.058;2023-03-25T09:44:36;99884.44;;;12.83;59.52
67109;BME280;54027;50.786;7.058;2023-03-25T09:47:03;99917.47;;;12.78;60.40
67109;BME280;54027;50.786;7.058;2023-03-25T09:49:39;99919.09;;;12.80;60.67
67109;BME280;54027;50.786;7.058;2023-03-25T09:52:10;99911.59;;;12.71;59.79
67109;BME280;54027;50.786;7.058;2023-03-25T09:54:49;99912.47;;;12.72;59.73
67109;BME280;54027;50.786;7.058;2023-03-25T09:57:27;99914.97;;;12.75;60.19
67109;BME280;54027;50.786;7.058;2023-03-25T09:59:56;99896.22;;;12.67;58.63
67109;BME280;54027;50.786;7.058;2023-03-25T10:02:39;99888.56;;;12.62;58.07
67109;BME280;54027;50.786;7.058;2023-03-25T10:05:33;99924.00;;;12.62;59.48
67109;BME280;54027;50.786;7.058;2023-03-25T10:10:51;99964.91;;;12.52;61.53
67109;BME280;54027;50.786;7.058;2023-03-25T10:19:37;99942.91;;;13.21;59.82
67109;BME280;54027;50.786;7.058;2023-03-25T10:22:16;99909.31;;;13.18;57.76
67109;BME280;54027;50.786;7.058;2023-03-25T10:24:49;99918.38;;;13.05;57.47
67109;BME280;54027;50.786;7.058;2023-03-25T10:27:31;99945.88;;;13.36;58.88
67109;BME280;54027;50.786;7.058;2023-03-25T10:32:54;99932.69;;;13.42;58.39
67109;BME280;54027;50.786;7.058;2023-03-25T10:35:34;99948.66;;;13.56;59.21
67109;BME280;54027;50.786;7.058;2023-03-25T10:38:20;99965.31;;;13.76;59.41
67109;BME280;54027;50.786;7.058;2023-03-25T10:40:50;99926.03;;;13.85;58.13
67109;BME280;54027;50.786;7.058;2023-03-25T10:43:30;99931.03;;;13.91;58.30
67109;BME280;54027;50.786;7.058;2023-03-25T10:46:05;99868.28;;;14.01;55.27
67109;BME280;54027;50.786;7.058;2023-03-25T10:48:35;99900.84;;;13.87;56.96
67109;BME280;54027;50.786;7.058;2023-03-25T10:51:15;99881.78;;;14.11;55.35
67109;BME280;54027;50.786;7.058;2023-03-25T10:53:46;99892.69;;;14.21;55.06
67109;BME280;54027;50.786;7.058;2023-03-25T10:56:35;99888.78;;;14.32;55.52
67109;BME280;54027;50.786;7.058;2023-03-25T10:59:09;99879.94;;;14.15;54.46
67109;BME280;54027;50.786;7.058;2023-03-25T11:01:40;99888.81;;;13.84;54.99
67109;BME280;54027;50.786;7.058;2023-03-25T11:04:17;99909.56;;;13.86;56.21
67109;BME280;54027;50.786;7.058;2023-03-25T11:06:50;99927.03;;;14.05;56.15
67109;BME280;54027;50.786;7.058;2023-03-25T11:09:23;99914.78;;;13.86;55.41
67109;BME280;54027;50.786;7.058;2023-03-25T11:11:49;99922.59;;;13.84;55.91
67109;BME280;54027;50.786;7.058;2023-03-25T11:14:21;99928.69;;;13.83;56.29
67109;BME280;54027;50.786;7.058;2023-03-25T11:17:00;99920.94;;;14.06;55.64
67109;BME280;54027;50.786;7.058;2023-03-25T11:19:32;99923.81;;;14.47;55.93
67109;BME280;54027;50.786;7.058;2023-03-25T11:22:26;99901.25;;;14.47;54.76
67109;BME280;54027;50.786;7.058;2023-03-25T11:24:58;99881.56;;;14.17;53.54
67109;BME280;54027;50.786;7.058;2023-03-25T11:27:26;99903.53;;;14.32;54.94
67109;BME280;54027;50.786;7.058;2023-03-25T11:29:56;99893.25;;;14.52;54.36
67109;BME280;54027;50.786;7.058;2023-03-25T11:32:38;99883.78;;;14.51;54.18
67109;BME280;54027;50.786;7.058;2023-03-25T11:35:15;99856.38;;;14.42;53.27
67109;BME280;54027;50.786;7.058;2023-03-25T11:37:46;99862.84;;;14.76;53.45
67109;BME280;54027;50.786;7.058;2023-03-25T11:40:16;99868.00;;;14.99;52.55
67109;BME280;54027;50.786;7.058;2023-03-25T11:42:43;99853.78;;;14.86;52.28
67109;BME280;54027;50.786;7.058;2023-03-25T11:45:32;99876.09;;;15.13;52.83
67109;BME280;54027;50.786;7.058;2023-03-25T11:48:01;99837.94;;;15.32;51.22
67109;BME280;54027;50.786;7.058;2023-03-25T11:50:33;99831.97;;;15.50;50.63
67109;BME280;54027;50.786;7.058;2023-03-25T11:53:01;99805.91;;;15.50;49.87
67109;BME280;54027;50.786;7.058;2023-03-25T11:55:30;99822.16;;;15.16;51.28
67109;BME280;54027;50.786;7.058;2023-03-25T11:57:58;99837.94;;;15.32;50.94
67109;BME280;54027;50.786;7.058;2023-03-25T12:05:27;99866.25;;;14.78;51.58
67109;BME280;54027;50.786;7.058;2023-03-25T12:08:03;99861.09;;;14.54;52.00
67109;BME280;54027;50.786;7.058;2023-03-25T12:10:56;99881.88;;;14.31;52.56
67109;BME280;54027;50.786;7.058;2023-03-25T12:13:45;99924.31;;;14.56;54.46
67109;BME280;54027;50.786;7.058;2023-03-25T12:19:14;99825.94;;;15.08;49.92
67109;BME280;54027;50.786;7.058;2023-03-25T12:32:19;99805.81;;;15.13;48.87
67109;BME280;54027;50.786;7.058;2023-03-25T12:35:20;99815.66;;;15.05;49.68
67109;BME280;54027;50.786;7.058;2023-03-25T12:43:19;99807.19;;;14.80;48.76
67109;BME280;54027;50.786;7.058;2023-03-25T12:46:01;99801.88;;;15.03;49.23
67109;BME280;54027;50.786;7.058;2023-03-25T12:54:37;99766.81;;;15.70;47.43
67109;BME280;54027;50.786;7.058;2023-03-25T13:05:52;99758.66;;;16.15;46.44
67109;BME280;54027;50.786;7.058;2023-03-25T13:11:07;99774.75;;;15.88;45.28
67109;BME280;54027;50.786;7.058;2023-03-25T13:13:37;99761.47;;;15.73;45.32
67109;BME280;54027;50.786;7.058;2023-03-25T13:16:10;99776.38;;;15.31;46.22
67109;BME280;54027;50.786;7.058;2023-03-25T13:18:57;99807.56;;;15.33;48.38
67109;BME280;54027;50.786;7.058;2023-03-25T13:21:31;99754.78;;;15.68;46.26
67109;BME280;54027;50.786;7.058;2023-03-25T13:24:05;99774.81;;;16.23;47.08
67109;BME280;54027;50.786;7.058;2023-03-25T13:26:34;99747.09;;;16.21;45.27
67109;BME280;54027;50.786;7.058;2023-03-25T13:29:03;99762.81;;;16.19;46.72
67109;BME280;54027;50.786;7.058;2023-03-25T13:31:39;99752.59;;;16.51;46.19
67109;BME280;54027;50.786;7.058;2023-03-25T13:34:33;99746.34;;;16.36;46.22
67109;BME280;54027;50.786;7.058;2023-03-25T13:39:56;99726.41;;;15.81;44.82
67109;BME280;54027;50.786;7.058;2023-03-25T13:45:22;99724.66;;;15.03;44.86
67109;BME280;54027;50.786;7.058;2023-03-25T13:47:52;99724.16;;;14.95;45.16
67109;BME280;54027;50.786;7.058;2023-03-25T13:50:27;99729.09;;;15.01;45.12
67109;BME280;54027;50.786;7.058;2023-03-25T13:53:23;99730.13;;;14.97;44.78
67109;BME280;54027;50.786;7.058;2023-03-25T13:58:51;99790.00;;;14.32;47.83
67109;BME280;54027;50.786;7.058;2023-03-25T14:04:39;99906.66;;;13.70;53.04
67109;BME280;54027;50.786;7.058;2023-03-25T14:10:23;100020.22;;;13.11;59.26
67109;BME280;54027;50.786;7.058;2023-03-25T14:12:55;100072.34;;;12.73;59.87
67109;BME280;54027;50.786;7.058;2023-03-25T14:15:28;100176.59;;;12.18;65.57
67109;BME280;54027;50.786;7.058;2023-03-25T14:17:56;100244.94;;;11.32;74.30
67109;BME280;54027;50.786;7.058;2023-03-25T14:20:26;100181.94;;;10.43;81.06
67109;BME280;54027;50.786;7.058;2023-03-25T14:22:56;100158.16;;;10.24;85.38
67109;BME280;54027;50.786;7.058;2023-03-25T14:25:35;100142.38;;;10.41;86.83
67109;BME280;54027;50.786;7.058;2023-03-25T14:28:03;100141.75;;;10.74;86.96
67109;BME280;54027;50.786;7.058;2023-03-25T14:30:29;100131.63;;;11.07;86.32
67109;BME280;54027;50.786;7.058;2023-03-25T14:32:57;100136.66;;;11.13;83.26
67109;BME280;54027;50.786;7.058;2023-03-25T14:43:38;100093.44;;;11.95;79.16
67109;BME280;54027;50.786;7.058;2023-03-25T14:56:22;100097.00;;;12.23;74.16
67109;BME280;54027;50.786;7.058;2023-03-25T14:58:53;100077.91;;;12.59;72.48
67109;BME280;54027;50.786;7.058;2023-03-25T15:01:29;100029.22;;;12.99;69.09
67109;BME280;54027;50.786;7.058;2023-03-25T15:04:28;100002.28;;;13.31;67.82
67109;BME280;54027;50.786;7.058;2023-03-25T15:06:52;99987.56;;;13.58;66.45
67109;BME280;54027;50.786;7.058;2023-03-25T15:09:19;99938.03;;;13.89;63.88
67109;BME280;54027;50.786;7.058;2023-03-25T15:11:57;99977.31;;;13.80;64.98
67109;BME280;54027;50.786;7.058;2023-03-25T15:14:37;99941.72;;;13.57;63.65
67109;BME280;54027;50.786;7.058;2023-03-25T15:17:09;99965.69;;;13.39;64.13